sensor_id;sensor_type;location;lat;lon;timestamp;P1;durP1;ratioP1;P2;durP2;ratioP2
21018;SDS011;10667;51.056;3.732;2022-12-01T00:02:07;54.63;;;30.23;;
21018;SDS011;10667;51.056;3.732;2022-12-01T00:04:32;52.30;;;29.92;;
21018;SDS011;10667;51.056;3.732;2022-12-01T00:06:58;48.65;;;28.63;;
21018;SDS011;10667;51.056;3.732;2022-12-01T00:09:24;52.42;;;30.23;;
21018;SDS011;10667;51.056;3.732;2022-12-01T00:12:08;57.42;;;30.75;;
21018;SDS011;10667;51.056;3.732;2022-12-01T00:14:33;52.55;;;29.20;;
21018;SDS011;10667;51.056;3.732;2022-12-01T00:16:59;57.55;;;29.70;;
21018;SDS011;10667;51.056;3.732;2022-12-01T00:19:25;50.95;;;29.45;;
21018;SDS011;10667;51.056;3.732;2022-12-01T00:21:51;54.33;;;30.30;;
21018;SDS011;10667;51.056;3.732;2022-12-01T00:24:17;49.70;;;28.95;;
21018;SDS011;10667;51.056;3.732;2022-12-01T00:26:43;50.08;;;29.27;;
21018;SDS011;10667;51.056;3.732;2022-12-01T00:29:09;54.13;;;28.90;;
21018;SDS011;10667;51.056;3.732;2022-12-01T00:31:34;48.70;;;28.13;;
21018;SDS011;10667;51.056;3.732;2022-12-01T00:34:00;45.95;;;28.40;;
21018;SDS011;10667;51.056;3.732;2022-12-01T00:36:26;47.65;;;27.52;;
21018;SDS011;10667;51.056;3.732;2022-12-01T00:38:53;48.53;;;28.60;;
21018;SDS011;10667;51.056;3.732;2022-12-01T00:41:21;50.13;;;28.17;;
21018;SDS011;10667;51.056;3.732;2022-12-01T00:43:47;49.22;;;27.70;;
21018;SDS011;10667;51.056;3.732;2022-12-01T00:46:13;46.00;;;27.02;;
21018;SDS011;10667;51.056;3.732;2022-12-01T00:48:39;43.13;;;26.48;;
21018;SDS011;10667;51.056;3.732;2022-12-01T00:51:05;46.40;;;27.55;;
21018;SDS011;10667;51.056;3.732;2022-12-01T00:53:30;42.30;;;26.17;;
21018;SDS011;10667;51.056;3.732;2022-12-01T00:55:56;44.95;;;26.85;;
21018;SDS011;10667;51.056;3.732;2022-12-01T00:58:22;43.42;;;26.58;;
21018;SDS011;10667;51.056;3.732;2022-12-01T01:00:48;47.80;;;28.00;;
21018;SDS011;10667;51.056;3.732;2022-12-01T01:03:21;50.97;;;28.02;;
21018;SDS011;10667;51.056;3.732;2022-12-01T01:05:46;51.13;;;27.35;;
21018;SDS011;10667;51.056;3.732;2022-12-01T01:08:12;44.90;;;26.25;;
21018;SDS011;10667;51.056;3.732;2022-12-01T01:10:43;48.92;;;27.20;;
21018;SDS011;10667;51.056;3.732;2022-12-01T01:13:10;46.58;;;27.08;;
21018;SDS011;10667;51.056;3.732;2022-12-01T01:15:36;47.75;;;27.13;;
21018;SDS011;10667;51.056;3.732;2022-12-01T01:18:02;49.97;;;27.23;;
21018;SDS011;10667;51.056;3.732;2022-12-01T01:20:29;48.67;;;28.25;;
21018;SDS011;10667;51.056;3.732;2022-12-01T01:22:55;53.70;;;27.73;;
21018;SDS011;10667;51.056;3.732;2022-12-01T01:25:21;44.78;;;26.40;;
21018;SDS011;10667;51.056;3.732;2022-12-01T01:27:47;48.90;;;28.08;;
21018;SDS011;10667;51.056;3.732;2022-12-01T01:30:12;53.28;;;30.13;;
21018;SDS011;10667;51.056;3.732;2022-12-01T01:32:38;51.00;;;29.48;;
21018;SDS011;10667;51.056;3.732;2022-12-01T01:35:04;49.75;;;28.20;;
21018;SDS011;10667;51.056;3.732;2022-12-01T01:37:30;54.63;;;27.67;;
21018;SDS011;10667;51.056;3.732;2022-12-01T01:39:56;49.33;;;27.88;;
21018;SDS011;10667;51.056;3.732;2022-12-01T01:42:21;53.03;;;28.42;;
21018;SDS011;10667;51.056;3.732;2022-12-01T01:44:51;52.92;;;29.15;;
21018;SDS011;10667;51.056;3.732;2022-12-01T01:47:35;49.00;;;27.77;;
21018;SDS011;10667;51.056;3.732;2022-12-01T01:50:06;56.65;;;30.75;;
21018;SDS011;10667;51.056;3.732;2022-12-01T01:52:34;59.65;;;31.25;;
21018;SDS011;10667;51.056;3.732;2022-12-01T01:55:02;60.05;;;31.65;;
21018;SDS011;10667;51.056;3.732;2022-12-01T01:57:30;68.00;;;33.20;;
21018;SDS011;10667;51.056;3.732;2022-12-01T02:00:01;64.93;;;33.90;;
21018;SDS011;10667;51.056;3.732;2022-12-01T02:02:35;69.18;;;34.10;;
21018;SDS011;10667;51.056;3.732;2022-12-01T02:05:05;60.78;;;33.25;;
21018;SDS011;10667;51.056;3.732;2022-12-01T02:07:35;65.88;;;33.58;;
21018;SDS011;10667;51.056;3.732;2022-12-01T02:10:02;65.70;;;35.17;;
21018;SDS011;10667;51.056;3.732;2022-12-01T02:12:34;67.75;;;33.38;;
21018;SDS011;10667;51.056;3.732;2022-12-01T02:15:24;63.50;;;33.88;;
21018;SDS011;10667;51.056;3.732;2022-12-01T02:30:34;67.38;;;33.65;;
21018;SDS011;10667;51.056;3.732;2022-12-01T02:33:35;59.58;;;32.30;;
21018;SDS011;10667;51.056;3.732;2022-12-01T02:36:18;61.60;;;32.20;;
21018;SDS011;10667;51.056;3.732;2022-12-01T02:39:06;65.00;;;32.72;;
21018;SDS011;10667;51.056;3.732;2022-12-01T02:41:38;59.72;;;34.47;;
21018;SDS011;10667;51.056;3.732;2022-12-01T02:44:20;61.75;;;33.88;;
21018;SDS011;10667;51.056;3.732;2022-12-01T02:46:58;61.45;;;34.25;;
21018;SDS011;10667;51.056;3.732;2022-12-01T02:49:31;61.35;;;33.95;;
21018;SDS011;10667;51.056;3.732;2022-12-01T02:52:00;60.65;;;32.50;;
21018;SDS011;10667;51.056;3.732;2022-12-01T02:54:29;59.95;;;32.38;;
21018;SDS011;10667;51.056;3.732;2022-12-01T02:56:56;54.28;;;31.05;;
21018;SDS011;10667;51.056;3.732;2022-12-01T02:59:22;59.20;;;33.13;;
21018;SDS011;10667;51.056;3.732;2022-12-01T03:07:09;60.17;;;34.00;;
21018;SDS011;10667;51.056;3.732;2022-12-01T03:10:12;60.13;;;33.45;;
21018;SDS011;10667;51.056;3.732;2022-12-01T03:18:30;55.53;;;30.67;;
21018;SDS011;10667;51.056;3.732;2022-12-01T03:21:12;58.55;;;31.42;;
21018;SDS011;10667;51.056;3.732;2022-12-01T03:24:12;62.67;;;31.67;;
21018;SDS011;10667;51.056;3.732;2022-12-01T03:26:41;57.55;;;31.02;;
21018;SDS011;10667;51.056;3.732;2022-12-01T03:29:20;58.13;;;29.85;;
21018;SDS011;10667;51.056;3.732;2022-12-01T03:31:53;55.63;;;30.33;;
21018;SDS011;10667;51.056;3.732;2022-12-01T03:34:29;59.38;;;30.42;;
21018;SDS011;10667;51.056;3.732;2022-12-01T03:37:22;59.13;;;31.23;;
21018;SDS011;10667;51.056;3.732;2022-12-01T03:39:55;59.20;;;31.05;;
21018;SDS011;10667;51.056;3.732;2022-12-01T03:42:30;58.40;;;31.95;;
21018;SDS011;10667;51.056;3.732;2022-12-01T03:45:03;60.95;;;31.80;;
21018;SDS011;10667;51.056;3.732;2022-12-01T03:47:32;60.75;;;32.00;;
21018;SDS011;10667;51.056;3.732;2022-12-01T03:50:01;62.75;;;31.35;;
21018;SDS011;10667;51.056;3.732;2022-12-01T03:52:37;59.15;;;31.00;;
21018;SDS011;10667;51.056;3.732;2022-12-01T03:55:28;58.28;;;30.17;;
21018;SDS011;10667;51.056;3.732;2022-12-01T03:58:04;55.05;;;30.00;;
21018;SDS011;10667;51.056;3.732;2022-12-01T04:00:43;60.38;;;31.05;;
21018;SDS011;10667;51.056;3.732;2022-12-01T04:03:17;57.35;;;31.23;;
21018;SDS011;10667;51.056;3.732;2022-12-01T04:05:44;56.88;;;28.40;;
21018;SDS011;10667;51.056;3.732;2022-12-01T04:08:10;52.65;;;28.55;;
21018;SDS011;10667;51.056;3.732;2022-12-01T04:10:35;54.13;;;29.65;;
21018;SDS011;10667;51.056;3.732;2022-12-01T04:13:01;55.42;;;29.27;;
21018;SDS011;10667;51.056;3.732;2022-12-01T04:15:27;53.90;;;28.35;;
21018;SDS011;10667;51.056;3.732;2022-12-01T04:17:53;52.83;;;28.30;;
21018;SDS011;10667;51.056;3.732;2022-12-01T04:20:18;55.05;;;27.95;;
21018;SDS011;10667;51.056;3.732;2022-12-01T04:22:44;54.97;;;28.65;;
21018;SDS011;10667;51.056;3.732;2022-12-01T04:25:10;53.60;;;28.05;;
21018;SDS011;10667;51.056;3.732;2022-12-01T04:27:36;55.50;;;28.25;;
21018;SDS011;10667;51.056;3.732;2022-12-01T04:30:03;58.63;;;29.55;;
21018;SDS011;10667;51.056;3.732;2022-12-01T04:32:30;52.42;;;27.80;;
21018;SDS011;10667;51.056;3.732;2022-12-01T04:34:56;53.83;;;28.42;;
21018;SDS011;10667;51.056;3.732;2022-12-01T04:37:22;50.78;;;28.70;;
21018;SDS011;10667;51.056;3.732;2022-12-01T04:39:47;54.38;;;28.33;;
21018;SDS011;10667;51.056;3.732;2022-12-01T04:42:13;55.05;;;29.70;;
21018;SDS011;10667;51.056;3.732;2022-12-01T04:44:39;51.78;;;29.65;;
21018;SDS011;10667;51.056;3.732;2022-12-01T04:47:05;51.03;;;27.70;;
21018;SDS011;10667;51.056;3.732;2022-12-01T04:49:31;52.78;;;29.45;;
21018;SDS011;10667;51.056;3.732;2022-12-01T04:51:57;49.30;;;28.67;;
21018;SDS011;10667;51.056;3.732;2022-12-01T04:54:23;54.15;;;28.25;;
21018;SDS011;10667;51.056;3.732;2022-12-01T04:56:49;52.95;;;29.15;;
21018;SDS011;10667;51.056;3.732;2022-12-01T04:59:15;51.38;;;29.30;;
21018;SDS011;10667;51.056;3.732;2022-12-01T05:01:40;54.15;;;29.77;;
21018;SDS011;10667;51.056;3.732;2022-12-01T05:04:09;55.95;;;29.67;;
21018;SDS011;10667;51.056;3.732;2022-12-01T05:06:36;50.55;;;29.30;;
21018;SDS011;10667;51.056;3.732;2022-12-01T05:09:02;53.72;;;29.73;;
21018;SDS011;10667;51.056;3.732;2022-12-01T05:11:28;54.28;;;30.33;;
21018;SDS011;10667;51.056;3.732;2022-12-01T05:13:54;58.40;;;29.67;;
21018;SDS011;10667;51.056;3.732;2022-12-01T05:16:22;53.22;;;29.30;;
21018;SDS011;10667;51.056;3.732;2022-12-01T05:18:50;56.80;;;29.95;;
21018;SDS011;10667;51.056;3.732;2022-12-01T05:21:37;59.25;;;31.73;;
21018;SDS011;10667;51.056;3.732;2022-12-01T05:24:04;54.20;;;30.67;;
21018;SDS011;10667;51.056;3.732;2022-12-01T05:26:30;59.17;;;29.98;;
21018;SDS011;10667;51.056;3.732;2022-12-01T05:28:56;59.75;;;31.05;;
21018;SDS011;10667;51.056;3.732;2022-12-01T05:31:22;57.97;;;30.05;;
21018;SDS011;10667;51.056;3.732;2022-12-01T05:33:47;60.97;;;31.58;;
21018;SDS011;10667;51.056;3.732;2022-12-01T05:36:13;70.75;;;33.53;;
21018;SDS011;10667;51.056;3.732;2022-12-01T05:38:39;64.88;;;33.03;;
21018;SDS011;10667;51.056;3.732;2022-12-01T05:41:04;56.47;;;30.10;;
21018;SDS011;10667;51.056;3.732;2022-12-01T05:43:30;59.58;;;32.22;;
21018;SDS011;10667;51.056;3.732;2022-12-01T05:45:56;61.00;;;31.60;;
21018;SDS011;10667;51.056;3.732;2022-12-01T05:48:22;59.28;;;30.73;;
21018;SDS011;10667;51.056;3.732;2022-12-01T05:50:49;65.75;;;31.98;;
21018;SDS011;10667;51.056;3.732;2022-12-01T05:53:15;56.72;;;30.85;;
21018;SDS011;10667;51.056;3.732;2022-12-01T05:55:42;65.88;;;32.13;;
21018;SDS011;10667;51.056;3.732;2022-12-01T05:58:08;61.03;;;31.10;;
21018;SDS011;10667;51.056;3.732;2022-12-01T06:00:34;59.60;;;30.70;;
21018;SDS011;10667;51.056;3.732;2022-12-01T06:03:00;60.22;;;31.15;;
21018;SDS011;10667;51.056;3.732;2022-12-01T06:05:26;58.67;;;30.38;;
21018;SDS011;10667;51.056;3.732;2022-12-01T06:07:52;61.65;;;30.88;;
21018;SDS011;10667;51.056;3.732;2022-12-01T06:10:17;62.72;;;30.98;;
21018;SDS011;10667;51.056;3.732;2022-12-01T06:12:43;65.68;;;32.35;;
21018;SDS011;10667;51.056;3.732;2022-12-01T06:15:09;62.58;;;31.83;;
21018;SDS011;10667;51.056;3.732;2022-12-01T06:17:36;65.43;;;32.60;;
21018;SDS011;10667;51.056;3.732;2022-12-01T06:20:02;61.38;;;33.22;;
21018;SDS011;10667;51.056;3.732;2022-12-01T06:22:28;63.22;;;33.78;;
21018;SDS011;10667;51.056;3.732;2022-12-01T06:24:53;65.10;;;32.33;;
21018;SDS011;10667;51.056;3.732;2022-12-01T06:27:19;64.82;;;33.03;;
21018;SDS011;10667;51.056;3.732;2022-12-01T06:29:45;62.53;;;32.33;;
21018;SDS011;10667;51.056;3.732;2022-12-01T06:32:10;60.67;;;32.63;;
21018;SDS011;10667;51.056;3.732;2022-12-01T06:34:36;66.32;;;34.22;;
21018;SDS011;10667;51.056;3.732;2022-12-01T06:37:01;66.70;;;34.10;;
21018;SDS011;10667;51.056;3.732;2022-12-01T06:39:27;67.90;;;34.28;;
21018;SDS011;10667;51.056;3.732;2022-12-01T06:41:53;67.35;;;33.38;;
21018;SDS011;10667;51.056;3.732;2022-12-01T06:44:18;60.65;;;33.60;;
21018;SDS011;10667;51.056;3.732;2022-12-01T06:46:44;63.47;;;32.95;;
21018;SDS011;10667;51.056;3.732;2022-12-01T06:49:10;61.28;;;32.75;;
21018;SDS011;10667;51.056;3.732;2022-12-01T06:51:37;66.43;;;32.95;;
21018;SDS011;10667;51.056;3.732;2022-12-01T06:54:03;69.05;;;34.13;;
21018;SDS011;10667;51.056;3.732;2022-12-01T06:56:29;65.47;;;33.83;;
21018;SDS011;10667;51.056;3.732;2022-12-01T06:58:54;67.32;;;33.65;;
21018;SDS011;10667;51.056;3.732;2022-12-01T07:01:21;66.63;;;33.20;;
21018;SDS011;10667;51.056;3.732;2022-12-01T07:03:47;61.22;;;32.08;;
21018;SDS011;10667;51.056;3.732;2022-12-01T07:06:13;73.60;;;35.33;;
21018;SDS011;10667;51.056;3.732;2022-12-01T07:08:40;68.15;;;35.15;;
21018;SDS011;10667;51.056;3.732;2022-12-01T07:11:06;70.80;;;35.17;;
21018;SDS011;10667;51.056;3.732;2022-12-01T07:13:36;66.60;;;34.05;;
21018;SDS011;10667;51.056;3.732;2022-12-01T07:16:02;66.85;;;35.15;;
21018;SDS011;10667;51.056;3.732;2022-12-01T07:18:29;66.20;;;34.58;;
21018;SDS011;10667;51.056;3.732;2022-12-01T07:20:59;72.03;;;35.50;;
21018;SDS011;10667;51.056;3.732;2022-12-01T07:23:28;71.07;;;34.92;;
21018;SDS011;10667;51.056;3.732;2022-12-01T07:26:14;70.22;;;35.35;;
21018;SDS011;10667;51.056;3.732;2022-12-01T07:28:41;75.88;;;37.28;;
21018;SDS011;10667;51.056;3.732;2022-12-01T07:31:11;78.55;;;36.85;;
21018;SDS011;10667;51.056;3.732;2022-12-01T07:33:39;76.80;;;36.97;;
21018;SDS011;10667;51.056;3.732;2022-12-01T07:36:05;75.18;;;35.67;;
21018;SDS011;10667;51.056;3.732;2022-12-01T07:38:32;77.78;;;35.95;;
21018;SDS011;10667;51.056;3.732;2022-12-01T07:41:12;77.75;;;37.70;;
21018;SDS011;10667;51.056;3.732;2022-12-01T07:43:39;75.38;;;35.65;;
21018;SDS011;10667;51.056;3.732;2022-12-01T07:46:06;74.30;;;36.63;;
21018;SDS011;10667;51.056;3.732;2022-12-01T07:48:37;73.18;;;35.70;;
21018;SDS011;10667;51.056;3.732;2022-12-01T07:51:04;74.30;;;37.83;;
21018;SDS011;10667;51.056;3.732;2022-12-01T07:53:30;75.60;;;36.95;;
21018;SDS011;10667;51.056;3.732;2022-12-01T07:55:56;74.50;;;38.20;;
21018;SDS011;10667;51.056;3.732;2022-12-01T07:58:23;75.50;;;35.75;;
21018;SDS011;10667;51.056;3.732;2022-12-01T08:00:48;78.97;;;36.72;;
21018;SDS011;10667;51.056;3.732;2022-12-01T08:03:14;80.60;;;35.90;;
21018;SDS011;10667;51.056;3.732;2022-12-01T08:05:40;73.22;;;34.70;;
21018;SDS011;10667;51.056;3.732;2022-12-01T08:08:05;70.70;;;35.85;;
21018;SDS011;10667;51.056;3.732;2022-12-01T08:10:31;86.03;;;37.63;;
21018;SDS011;10667;51.056;3.732;2022-12-01T08:12:57;75.75;;;36.20;;
21018;SDS011;10667;51.056;3.732;2022-12-01T08:15:22;72.40;;;36.38;;
21018;SDS011;10667;51.056;3.732;2022-12-01T08:17:48;76.85;;;35.78;;
21018;SDS011;10667;51.056;3.732;2022-12-01T08:20:14;75.68;;;36.90;;
21018;SDS011;10667;51.056;3.732;2022-12-01T08:22:39;73.63;;;36.97;;
21018;SDS011;10667;51.056;3.732;2022-12-01T08:25:06;76.65;;;37.17;;
21018;SDS011;10667;51.056;3.732;2022-12-01T08:27:32;70.05;;;34.65;;
21018;SDS011;10667;51.056;3.732;2022-12-01T08:29:58;73.30;;;36.08;;
21018;SDS011;10667;51.056;3.732;2022-12-01T08:32:24;70.35;;;34.60;;
21018;SDS011;10667;51.056;3.732;2022-12-01T08:34:49;71.53;;;34.15;;
21018;SDS011;10667;51.056;3.732;2022-12-01T08:37:15;74.88;;;33.78;;
21018;SDS011;10667;51.056;3.732;2022-12-01T08:39:41;68.50;;;33.08;;
21018;SDS011;10667;51.056;3.732;2022-12-01T08:42:06;62.25;;;31.33;;
21018;SDS011;10667;51.056;3.732;2022-12-01T08:44:32;54.08;;;27.70;;
21018;SDS011;10667;51.056;3.732;2022-12-01T08:46:58;55.55;;;28.45;;
21018;SDS011;10667;51.056;3.732;2022-12-01T08:49:23;59.03;;;28.20;;
21018;SDS011;10667;51.056;3.732;2022-12-01T08:51:50;51.05;;;26.83;;
21018;SDS011;10667;51.056;3.732;2022-12-01T08:54:16;53.13;;;26.02;;
21018;SDS011;10667;51.056;3.732;2022-12-01T08:56:42;47.20;;;24.60;;
21018;SDS011;10667;51.056;3.732;2022-12-01T08:59:09;51.58;;;24.92;;
21018;SDS011;10667;51.056;3.732;2022-12-01T09:01:35;46.78;;;24.10;;
21018;SDS011;10667;51.056;3.732;2022-12-01T09:04:17;48.67;;;23.40;;
21018;SDS011;10667;51.056;3.732;2022-12-01T09:06:45;46.67;;;24.80;;
21018;SDS011;10667;51.056;3.732;2022-12-01T09:09:13;46.58;;;24.20;;
21018;SDS011;10667;51.056;3.732;2022-12-01T09:11:41;46.03;;;24.17;;
21018;SDS011;10667;51.056;3.732;2022-12-01T09:14:10;48.63;;;24.92;;
21018;SDS011;10667;51.056;3.732;2022-12-01T09:16:37;51.40;;;25.55;;
21018;SDS011;10667;51.056;3.732;2022-12-01T09:19:04;46.90;;;25.52;;
21018;SDS011;10667;51.056;3.732;2022-12-01T09:21:30;51.88;;;27.00;;
21018;SDS011;10667;51.056;3.732;2022-12-01T09:23:58;52.15;;;25.90;;
21018;SDS011;10667;51.056;3.732;2022-12-01T09:26:24;50.15;;;25.30;;
21018;SDS011;10667;51.056;3.732;2022-12-01T09:28:54;53.55;;;27.73;;
21018;SDS011;10667;51.056;3.732;2022-12-01T09:31:22;66.65;;;32.65;;
21018;SDS011;10667;51.056;3.732;2022-12-01T09:33:52;63.33;;;34.85;;
21018;SDS011;10667;51.056;3.732;2022-12-01T09:36:20;64.15;;;32.17;;
21018;SDS011;10667;51.056;3.732;2022-12-01T09:38:45;57.03;;;30.17;;
21018;SDS011;10667;51.056;3.732;2022-12-01T09:41:19;57.03;;;31.52;;
21018;SDS011;10667;51.056;3.732;2022-12-01T09:44:33;60.10;;;29.98;;
21018;SDS011;10667;51.056;3.732;2022-12-01T09:46:47;62.30;;;31.15;;
21018;SDS011;10667;51.056;3.732;2022-12-01T09:52:33;57.47;;;30.92;;
21018;SDS011;10667;51.056;3.732;2022-12-01T09:55:11;59.83;;;30.30;;
21018;SDS011;10667;51.056;3.732;2022-12-01T09:57:39;63.15;;;29.00;;
21018;SDS011;10667;51.056;3.732;2022-12-01T10:00:10;56.92;;;30.70;;
21018;SDS011;10667;51.056;3.732;2022-12-01T10:05:14;59.33;;;29.75;;
21018;SDS011;10667;51.056;3.732;2022-12-01T10:07:46;59.72;;;28.92;;
21018;SDS011;10667;51.056;3.732;2022-12-01T10:10:35;56.85;;;28.80;;
21018;SDS011;10667;51.056;3.732;2022-12-01T10:13:11;58.13;;;29.73;;
21018;SDS011;10667;51.056;3.732;2022-12-01T10:21:50;63.13;;;31.05;;
21018;SDS011;10667;51.056;3.732;2022-12-01T10:24:26;66.43;;;32.08;;
21018;SDS011;10667;51.056;3.732;2022-12-01T10:27:04;62.47;;;33.20;;
21018;SDS011;10667;51.056;3.732;2022-12-01T10:29:56;64.25;;;33.13;;
21018;SDS011;10667;51.056;3.732;2022-12-01T10:32:32;70.28;;;33.28;;
21018;SDS011;10667;51.056;3.732;2022-12-01T10:35:13;62.10;;;30.08;;
21018;SDS011;10667;51.056;3.732;2022-12-01T10:37:41;70.07;;;32.35;;
21018;SDS011;10667;51.056;3.732;2022-12-01T10:40:13;65.95;;;32.92;;
21018;SDS011;10667;51.056;3.732;2022-12-01T10:42:40;67.30;;;33.17;;
21018;SDS011;10667;51.056;3.732;2022-12-01T10:45:13;60.38;;;32.97;;
21018;SDS011;10667;51.056;3.732;2022-12-01T10:48:21;58.20;;;32.20;;
21018;SDS011;10667;51.056;3.732;2022-12-01T10:50:51;62.88;;;31.65;;
21018;SDS011;10667;51.056;3.732;2022-12-01T10:53:24;61.22;;;31.65;;
21018;SDS011;10667;51.056;3.732;2022-12-01T10:56:01;67.05;;;30.65;;
21018;SDS011;10667;51.056;3.732;2022-12-01T10:58:27;59.75;;;31.80;;
21018;SDS011;10667;51.056;3.732;2022-12-01T11:00:58;67.68;;;33.42;;
21018;SDS011;10667;51.056;3.732;2022-12-01T11:03:30;63.17;;;33.13;;
21018;SDS011;10667;51.056;3.732;2022-12-01T11:05:59;61.35;;;30.90;;
21018;SDS011;10667;51.056;3.732;2022-12-01T11:08:33;66.05;;;31.80;;
21018;SDS011;10667;51.056;3.732;2022-12-01T11:11:04;61.72;;;31.83;;
21018;SDS011;10667;51.056;3.732;2022-12-01T11:13:32;58.90;;;30.23;;
21018;SDS011;10667;51.056;3.732;2022-12-01T11:16:03;61.80;;;31.20;;
21018;SDS011;10667;51.056;3.732;2022-12-01T11:21:14;63.35;;;32.50;;
21018;SDS011;10667;51.056;3.732;2022-12-01T11:23:51;60.40;;;32.65;;
21018;SDS011;10667;51.056;3.732;2022-12-01T11:26:23;61.38;;;32.35;;
21018;SDS011;10667;51.056;3.732;2022-12-01T11:31:23;60.97;;;33.65;;
21018;SDS011;10667;51.056;3.732;2022-12-01T11:34:15;69.03;;;35.47;;
21018;SDS011;10667;51.056;3.732;2022-12-01T11:36:59;58.08;;;32.53;;
21018;SDS011;10667;51.056;3.732;2022-12-01T11:39:36;61.60;;;33.15;;
21018;SDS011;10667;51.056;3.732;2022-12-01T11:44:35;60.13;;;32.72;;
21018;SDS011;10667;51.056;3.732;2022-12-01T11:47:14;59.80;;;32.72;;
21018;SDS011;10667;51.056;3.732;2022-12-01T11:49:42;63.20;;;33.47;;
21018;SDS011;10667;51.056;3.732;2022-12-01T11:55:33;61.35;;;33.55;;
21018;SDS011;10667;51.056;3.732;2022-12-01T11:57:45;62.30;;;33.15;;
21018;SDS011;10667;51.056;3.732;2022-12-01T12:00:14;59.15;;;32.60;;
21018;SDS011;10667;51.056;3.732;2022-12-01T12:26:56;52.85;;;28.88;;
21018;SDS011;10667;51.056;3.732;2022-12-01T12:29:40;52.42;;;29.40;;
21018;SDS011;10667;51.056;3.732;2022-12-01T12:37:51;54.05;;;30.10;;
21018;SDS011;10667;51.056;3.732;2022-12-01T12:40:50;54.47;;;30.17;;
21018;SDS011;10667;51.056;3.732;2022-12-01T12:51:18;53.95;;;28.33;;
21018;SDS011;10667;51.056;3.732;2022-12-01T12:56:44;47.35;;;25.75;;
21018;SDS011;10667;51.056;3.732;2022-12-01T12:59:18;42.85;;;24.33;;
21018;SDS011;10667;51.056;3.732;2022-12-01T13:02:00;43.10;;;25.05;;
21018;SDS011;10667;51.056;3.732;2022-12-01T13:04:36;45.63;;;26.08;;
21018;SDS011;10667;51.056;3.732;2022-12-01T13:10:38;41.15;;;22.98;;
21018;SDS011;10667;51.056;3.732;2022-12-01T13:15:56;43.40;;;24.83;;
21018;SDS011;10667;51.056;3.732;2022-12-01T13:18:31;45.60;;;25.50;;
21018;SDS011;10667;51.056;3.732;2022-12-01T13:21:03;43.85;;;24.70;;
21018;SDS011;10667;51.056;3.732;2022-12-01T13:23:30;42.42;;;24.15;;
21018;SDS011;10667;51.056;3.732;2022-12-01T13:25:58;39.63;;;23.70;;
21018;SDS011;10667;51.056;3.732;2022-12-01T13:28:31;37.47;;;22.90;;
21018;SDS011;10667;51.056;3.732;2022-12-01T13:31:19;41.72;;;23.77;;
21018;SDS011;10667;51.056;3.732;2022-12-01T13:33:53;42.67;;;24.33;;
21018;SDS011;10667;51.056;3.732;2022-12-01T13:36:23;44.05;;;24.23;;
21018;SDS011;10667;51.056;3.732;2022-12-01T13:39:00;45.42;;;24.00;;
21018;SDS011;10667;51.056;3.732;2022-12-01T13:41:29;42.08;;;23.30;;
21018;SDS011;10667;51.056;3.732;2022-12-01T13:44:07;42.63;;;24.33;;
21018;SDS011;10667;51.056;3.732;2022-12-01T13:46:57;41.65;;;23.58;;
21018;SDS011;10667;51.056;3.732;2022-12-01T13:57:45;37.22;;;21.15;;
21018;SDS011;10667;51.056;3.732;2022-12-01T14:14:31;37.40;;;20.27;;
21018;SDS011;10667;51.056;3.732;2022-12-01T14:16:46;34.80;;;19.52;;
21018;SDS011;10667;51.056;3.732;2022-12-01T14:19:35;43.15;;;21.05;;
21018;SDS011;10667;51.056;3.732;2022-12-01T14:27:44;38.55;;;21.52;;
21018;SDS011;10667;51.056;3.732;2022-12-01T14:41:28;38.55;;;21.80;;
21018;SDS011;10667;51.056;3.732;2022-12-01T14:44:23;44.25;;;23.25;;
21018;SDS011;10667;51.056;3.732;2022-12-01T14:47:00;38.55;;;22.70;;
21018;SDS011;10667;51.056;3.732;2022-12-01T14:54:58;43.42;;;24.33;;
21018;SDS011;10667;51.056;3.732;2022-12-01T14:57:36;40.88;;;23.40;;
21018;SDS011;10667;51.056;3.732;2022-12-01T15:00:15;41.78;;;23.63;;
21018;SDS011;10667;51.056;3.732;2022-12-01T15:02:59;44.63;;;22.58;;
21018;SDS011;10667;51.056;3.732;2022-12-01T15:05:29;45.13;;;22.65;;
21018;SDS011;10667;51.056;3.732;2022-12-01T15:07:57;41.28;;;22.92;;
21018;SDS011;10667;51.056;3.732;2022-12-01T15:10:26;46.72;;;23.85;;
21018;SDS011;10667;51.056;3.732;2022-12-01T15:13:10;52.33;;;25.83;;
21018;SDS011;10667;51.056;3.732;2022-12-01T15:15:47;48.63;;;24.27;;
21018;SDS011;10667;51.056;3.732;2022-12-01T15:18:28;47.30;;;25.83;;
21018;SDS011;10667;51.056;3.732;2022-12-01T15:20:57;51.80;;;26.40;;
21018;SDS011;10667;51.056;3.732;2022-12-01T15:23:30;54.72;;;27.42;;
21018;SDS011;10667;51.056;3.732;2022-12-01T15:25:56;57.33;;;27.50;;
21018;SDS011;10667;51.056;3.732;2022-12-01T15:28:32;55.72;;;29.05;;
21018;SDS011;10667;51.056;3.732;2022-12-01T15:31:00;54.25;;;28.25;;
21018;SDS011;10667;51.056;3.732;2022-12-01T15:33:34;57.53;;;28.13;;
21018;SDS011;10667;51.056;3.732;2022-12-01T15:36:03;56.63;;;29.23;;
21018;SDS011;10667;51.056;3.732;2022-12-01T15:38:31;65.72;;;30.83;;
21018;SDS011;10667;51.056;3.732;2022-12-01T15:40:59;59.17;;;30.42;;
21018;SDS011;10667;51.056;3.732;2022-12-01T15:43:31;59.63;;;29.30;;
21018;SDS011;10667;51.056;3.732;2022-12-01T15:46:12;62.60;;;30.02;;
21018;SDS011;10667;51.056;3.732;2022-12-01T15:48:40;60.72;;;31.13;;
21018;SDS011;10667;51.056;3.732;2022-12-01T15:51:11;65.50;;;30.45;;
21018;SDS011;10667;51.056;3.732;2022-12-01T15:54:01;67.15;;;31.27;;
21018;SDS011;10667;51.056;3.732;2022-12-01T15:56:45;64.45;;;31.98;;
21018;SDS011;10667;51.056;3.732;2022-12-01T16:01:57;70.00;;;34.90;;
21018;SDS011;10667;51.056;3.732;2022-12-01T16:04:24;59.53;;;30.83;;
21018;SDS011;10667;51.056;3.732;2022-12-01T16:14:46;55.42;;;27.05;;
21018;SDS011;10667;51.056;3.732;2022-12-01T16:17:14;55.08;;;26.02;;
21018;SDS011;10667;51.056;3.732;2022-12-01T16:19:41;58.60;;;28.48;;
21018;SDS011;10667;51.056;3.732;2022-12-01T16:24:45;55.92;;;24.95;;
21018;SDS011;10667;51.056;3.732;2022-12-01T16:27:22;53.65;;;25.98;;
21018;SDS011;10667;51.056;3.732;2022-12-01T16:32:20;56.45;;;27.35;;
21018;SDS011;10667;51.056;3.732;2022-12-01T16:35:02;59.85;;;27.50;;
21018;SDS011;10667;51.056;3.732;2022-12-01T16:37:28;54.10;;;27.73;;
21018;SDS011;10667;51.056;3.732;2022-12-01T16:39:55;54.85;;;26.67;;
21018;SDS011;10667;51.056;3.732;2022-12-01T16:42:21;54.50;;;28.48;;
21018;SDS011;10667;51.056;3.732;2022-12-01T16:44:47;51.55;;;26.77;;
21018;SDS011;10667;51.056;3.732;2022-12-01T16:47:20;54.85;;;27.98;;
21018;SDS011;10667;51.056;3.732;2022-12-01T16:49:48;55.33;;;27.65;;
21018;SDS011;10667;51.056;3.732;2022-12-01T16:52:14;59.85;;;27.00;;
21018;SDS011;10667;51.056;3.732;2022-12-01T16:54:40;55.80;;;28.25;;
21018;SDS011;10667;51.056;3.732;2022-12-01T16:57:06;51.63;;;27.75;;
21018;SDS011;10667;51.056;3.732;2022-12-01T16:59:32;54.35;;;28.50;;
21018;SDS011;10667;51.056;3.732;2022-12-01T17:01:58;53.17;;;27.20;;
21018;SDS011;10667;51.056;3.732;2022-12-01T17:04:25;53.80;;;27.92;;
21018;SDS011;10667;51.056;3.732;2022-12-01T17:06:51;61.03;;;29.77;;
21018;SDS011;10667;51.056;3.732;2022-12-01T17:09:17;58.95;;;29.75;;
21018;SDS011;10667;51.056;3.732;2022-12-01T17:11:42;60.25;;;32.92;;
21018;SDS011;10667;51.056;3.732;2022-12-01T17:14:08;57.55;;;29.10;;